Time;durP1;ratioP1;P1;durP2;ratioP2;P2;SDS_P1;SDS_P2;PMS_P1;PMS_P2;Temp;Humidity;BMP_temperature;BMP_pressure;BME280_temperature;BME280_humidity;BME280_pressure;Samples;Min_cycle;Max_cycle;Signal;HPM_P1;HPM_P2
2024/04/17 00:01:49;;;;;;;4.80;3.40;;;;;;;3.68;100.00;97504.25;109523;1252;59010;-74
2024/04/17 00:04:16;;;;;;;6.00;3.60;;;;;;;3.67;100.00;97499.17;109493;1251;59048;-75
2024/04/17 00:06:42;;;;;;;5.30;3.70;;;;;;;3.67;100.00;97499.73;109522;1254;59297;-74
2024/04/17 00:09:09;;;;;;;6.10;3.70;;;;;;;3.65;100.00;97485.96;109468;1252;59018;-74
2024/04/17 00:11:36;;;;;;;6.20;4.60;;;;;;;3.66;100.00;97479.43;109493;1254;58977;-74
2024/04/17 00:14:02;;;;;;;6.20;3.70;;;;;;;3.66;100.00;97475.39;109502;1251;59035;-74
2024/04/17 00:16:29;;;;;;;7.40;4.60;;;;;;;3.65;100.00;97475.42;109522;1252;59064;-74
2024/04/17 00:18:55;;;;;;;18.10;16.40;;;;;;;3.64;100.00;97473.04;108805;1252;1002267;-75
2024/04/17 00:21:21;;;;;;;24.80;22.40;;;;;;;3.61;100.00;97474.27;109462;1253;59163;-74
2024/04/17 00:23:48;;;;;;;26.00;23.60;;;;;;;3.60;100.00;97473.65;109504;1252;59062;-73
2024/04/17 00:26:14;;;;;;;27.50;23.40;;;;;;;3.57;100.00;97476.16;109570;1254;59032;-74
2024/04/17 00:28:40;;;;;;;28.40;25.80;;;;;;;3.54;100.00;97474.77;109521;1253;59279;-75
2024/04/17 00:31:07;;;;;;;24.60;22.20;;;;;;;3.52;100.00;97473.30;109470;1254;58982;-74
2024/04/17 00:33:33;;;;;;;19.00;17.10;;;;;;;3.51;100.00;97476.86;109144;1254;59374;-74
2024/04/17 00:36:00;;;;;;;15.90;14.00;;;;;;;3.52;100.00;97477.11;109510;1252;59243;-74
2024/04/17 00:38:26;;;;;;;13.20;11.60;;;;;;;3.54;100.00;97476.64;109493;1253;59098;-74
2024/04/17 00:40:53;;;;;;;10.80;9.40;;;;;;;3.57;100.00;97475.60;109526;1253;59050;-74
2024/04/17 00:43:19;;;;;;;10.90;9.50;;;;;;;3.59;100.00;97474.96;109496;1253;59112;-72
2024/04/17 00:45:47;;;;;;;10.60;8.70;;;;;;;3.60;100.00;97472.44;109513;1252;59055;-75
2024/04/17 00:48:14;;;;;;;8.60;6.90;;;;;;;3.61;100.00;97473.61;109561;1252;58945;-75
2024/04/17 00:50:45;;;;;;;11.20;8.50;;;;;;;3.61;100.00;97471.33;109522;1252;58995;-74
2024/04/17 00:53:14;;;;;;;11.70;7.90;;;;;;;3.63;100.00;97473.65;109521;1252;64838;-75
2024/04/17 00:55:41;;;;;;;7.40;6.20;;;;;;;3.65;100.00;97470.37;109520;1252;59280;-73
2024/04/17 00:58:09;;;;;;;6.10;5.10;;;;;;;3.66;100.00;97466.80;107990;1252;1002854;-74
2024/04/17 01:00:36;;;;;;;7.90;4.50;;;;;;;3.66;100.00;97470.09;109494;1252;59021;-74
2024/04/17 01:03:03;;;;;;;6.40;3.70;;;;;;;3.69;100.00;97466.59;109490;1253;59166;-74
2024/04/17 01:05:31;;;;;;;5.80;4.00;;;;;;;3.72;100.00;97459.70;109491;1253;66112;-74
2024/04/17 01:07:58;;;;;;;6.80;4.50;;;;;;;3.77;100.00;97459.92;109161;1254;59103;-73
2024/04/17 01:10:24;;;;;;;6.30;4.00;;;;;;;3.83;100.00;97457.64;109509;1253;62870;-73
2024/04/17 01:12:51;;;;;;;5.90;4.70;;;;;;;3.88;100.00;97456.60;109518;1252;59250;-74
2024/04/17 01:15:21;;;;;;;6.30;4.60;;;;;;;3.93;100.00;97452.90;109502;1254;59228;-73
2024/04/17 01:17:48;;;;;;;8.30;4.60;;;;;;;3.99;100.00;97452.74;109485;1253;64833;-73
2024/04/17 01:20:14;;;;;;;9.00;4.90;;;;;;;4.03;100.00;97446.84;109522;1253;59868;-75
2024/04/17 01:22:40;;;;;;;6.10;4.10;;;;;;;4.06;100.00;97443.32;109512;1253;59003;-74
2024/04/17 01:25:07;;;;;;;5.40;3.70;;;;;;;4.07;100.00;97439.69;109495;1252;59269;-73
2024/04/17 01:27:33;;;;;;;8.40;4.40;;;;;;;4.07;100.00;97437.41;109469;1254;59220;-72
2024/04/17 01:29:59;;;;;;;7.50;4.00;;;;;;;4.07;100.00;97442.35;109512;1251;59259;-75
2024/04/17 01:32:27;;;;;;;8.90;5.10;;;;;;;4.07;100.00;97441.46;109501;1254;59009;-74
2024/04/17 01:34:53;;;;;;;6.70;4.90;;;;;;;4.08;100.00;97441.23;109499;1252;64614;-74
2024/04/17 01:37:19;;;;;;;8.00;5.10;;;;;;;4.08;100.00;97435.78;109486;1255;58999;-73
2024/04/17 01:39:46;;;;;;;6.10;4.90;;;;;;;4.08;100.00;97435.65;109547;1252;59065;-75
2024/04/17 01:42:12;;;;;;;5.50;4.50;;;;;;;4.08;100.00;97436.34;109473;1252;59047;-73
2024/04/17 01:44:38;;;;;;;5.20;4.50;;;;;;;4.07;100.00;97438.30;109461;1252;59167;-74
2024/04/17 01:47:04;;;;;;;7.10;4.70;;;;;;;4.05;100.00;97440.70;108767;1253;1002913;-76
2024/04/17 01:49:31;;;;;;;7.00;4.90;;;;;;;4.05;100.00;97440.77;109518;1252;58973;-74
2024/04/17 01:51:57;;;;;;;8.70;4.50;;;;;;;4.02;100.00;97440.92;109500;1253;59032;-74
2024/04/17 01:54:24;;;;;;;5.60;4.40;;;;;;;4.01;100.00;97434.52;109553;1252;58986;-74
2024/04/17 01:56:51;;;;;;;7.10;4.80;;;;;;;4.01;100.00;97430.41;109546;1254;59019;-73
2024/04/17 01:59:18;;;;;;;7.60;6.60;;;;;;;4.05;100.00;97427.05;109501;1253;59054;-74
2024/04/17 02:01:45;;;;;;;9.80;8.40;;;;;;;4.07;100.00;97425.67;109499;1252;58972;-73
2024/04/17 02:04:11;;;;;;;9.70;7.80;;;;;;;4.10;100.00;97427.77;109493;1256;58996;-74
2024/04/17 02:06:38;;;;;;;7.70;6.90;;;;;;;4.13;100.00;97425.82;109454;1253;59032;-74
2024/04/17 02:09:04;;;;;;;10.30;7.30;;;;;;;4.14;100.00;97424.11;109211;1252;59082;-74
2024/04/17 02:11:30;;;;;;;9.30;8.00;;;;;;;4.17;100.00;97421.09;109465;1253;59174;-75
2024/04/17 02:13:57;;;;;;;9.30;7.20;;;;;;;4.20;100.00;97420.41;109443;1253;59239;-74
2024/04/17 02:16:23;;;;;;;9.40;7.40;;;;;;;4.25;100.00;97421.66;109155;1253;59628;-74
2024/04/17 02:18:50;;;;;;;10.20;7.30;;;;;;;4.29;100.00;97420.19;109470;1253;59063;-74
2024/04/17 02:21:16;;;;;;;9.40;7.10;;;;;;;4.33;100.00;97419.20;109450;1252;58945;-75
2024/04/17 02:23:46;;;;;;;8.70;6.40;;;;;;;4.37;100.00;97418.38;109434;1253;59377;-74
2024/04/17 02:26:12;;;;;;;;;;;;;;;4.40;100.00;97414.29;109436;1253;58971;-73
2024/04/17 02:28:39;;;;;;;8.70;7.80;;;;;;;4.42;100.00;97415.27;109483;1253;59057;-74
2024/04/17 02:31:05;;;;;;;14.00;11.30;;;;;;;4.44;100.00;97412.84;109447;1253;59015;-74
2024/04/17 02:33:33;;;;;;;11.30;10.00;;;;;;;4.46;100.00;97415.31;109457;1252;59356;-75
2024/04/17 02:35:59;;;;;;;12.70;10.40;;;;;;;4.47;100.00;97414.54;109444;1253;64265;-75
2024/04/17 02:38:25;;;;;;;13.60;10.50;;;;;;;4.49;100.00;97407.38;109444;1253;58960;-74
2024/04/17 02:40:52;;;;;;;15.70;13.80;;;;;;;4.51;100.00;97405.52;109434;1253;58987;-74
2024/04/17 02:43:18;;;;;;;27.50;19.60;;;;;;;4.52;100.00;97402.59;109477;1253;59424;-74
2024/04/17 02:45:44;;;;;;;20.80;15.00;;;;;;;4.54;100.00;97403.33;109512;1253;59013;-75
2024/04/17 02:48:10;;;;;;;17.00;12.80;;;;;;;4.57;100.00;97402.46;109475;1253;59061;-75
2024/04/17 02:50:41;;;;;;;16.80;11.70;;;;;;;4.58;100.00;97401.34;109441;1253;59187;-74
2024/04/17 02:53:07;;;;;;;16.30;13.40;;;;;;;4.59;100.00;97404.10;109017;1253;61166;-75
2024/04/17 02:55:34;;;;;;;17.30;12.20;;;;;;;4.58;100.00;97405.34;109434;1253;66116;-75
2024/04/17 02:58:00;;;;;;;14.10;12.50;;;;;;;4.60;100.00;97405.58;109429;1253;61435;-75
2024/04/17 03:00:27;;;;;;;17.40;13.00;;;;;;;4.62;100.00;97402.42;109420;1253;59723;-73
2024/04/17 03:02:53;;;;;;;18.00;13.20;;;;;;;4.66;100.00;97404.15;109105;1253;59361;-74
2024/04/17 03:05:20;;;;;;;18.40;13.30;;;;;;;4.68;100.00;97402.75;109450;1253;59180;-73
2024/04/17 03:07:46;;;;;;;15.10;13.30;;;;;;;4.71;100.00;97400.60;109504;1253;59063;-75
2024/04/17 03:10:12;;;;;;;15.90;12.60;;;;;;;4.74;100.00;97402.34;109485;1255;59036;-73
2024/04/17 03:12:39;;;;;;;14.50;12.90;;;;;;;4.77;100.00;97410.20;109446;1253;59070;-74
2024/04/17 03:15:06;;;;;;;13.50;11.90;;;;;;;4.79;100.00;97413.95;109440;1253;59046;-74
2024/04/17 03:17:33;;;;;;;17.20;13.50;;;;;;;4.79;100.00;97415.01;109461;1253;59324;-75
2024/04/17 03:19:59;;;;;;;18.60;15.20;;;;;;;4.79;100.00;97414.85;109196;1253;59954;-75
2024/04/17 03:22:26;;;;;;;17.10;14.90;;;;;;;4.79;100.00;97413.27;109459;1253;59085;-74
2024/04/17 03:24:52;;;;;;;17.30;15.50;;;;;;;4.81;100.00;97414.85;109439;1253;58961;-74
2024/04/17 03:27:21;;;;;;;17.70;14.60;;;;;;;4.84;100.00;97419.25;108672;1253;1002498;-75
2024/04/17 03:29:48;;;;;;;19.10;16.50;;;;;;;4.86;100.00;97417.91;109409;1253;59050;-75
2024/04/17 03:32:14;;;;;;;18.30;15.50;;;;;;;4.88;100.00;97423.73;109506;1252;58987;-76
2024/04/17 03:34:40;;;;;;;16.40;14.80;;;;;;;4.92;100.00;97425.95;109493;1253;59043;-74
2024/04/17 03:37:06;;;;;;;16.60;14.70;;;;;;;4.93;100.00;97427.27;109419;1252;59073;-74
2024/04/17 03:39:33;;;;;;;18.10;16.00;;;;;;;4.95;100.00;97428.72;109469;1253;59247;-73
2024/04/17 03:41:59;;;;;;;20.30;17.70;;;;;;;4.98;100.00;97434.52;109469;1253;58992;-73
2024/04/17 03:44:25;;;;;;;22.90;18.40;;;;;;;5.00;100.00;97435.39;109444;1252;59793;-74
2024/04/17 03:46:52;;;;;;;23.60;18.10;;;;;;;5.02;100.00;97440.67;109497;1253;58941;-74
2024/04/17 03:49:18;;;;;;;22.00;18.20;;;;;;;5.05;100.00;97442.09;109182;1253;59198;-74
2024/04/17 03:51:44;;;;;;;23.50;18.20;;;;;;;5.08;100.00;97438.00;109426;1253;59040;-74
2024/04/17 03:54:10;;;;;;;21.50;18.40;;;;;;;5.11;100.00;97441.52;109453;1253;59098;-74
2024/04/17 03:56:37;;;;;;;22.70;18.10;;;;;;;5.13;100.00;97443.83;109488;1253;59263;-74
2024/04/17 03:59:03;;;;;;;19.10;15.90;;;;;;;5.15;100.00;97447.53;109483;1253;59118;-74
2024/04/17 04:01:34;;;;;;;18.40;16.40;;;;;;;5.16;100.00;97447.13;109466;1253;59343;-74
2024/04/17 04:04:01;;;;;;;17.60;15.70;;;;;;;5.17;100.00;97450.38;109391;1253;58978;-74
2024/04/17 04:06:27;;;;;;;20.70;16.10;;;;;;;5.18;100.00;97452.94;109488;1252;59356;-74
2024/04/17 04:08:54;;;;;;;19.60;15.50;;;;;;;5.19;100.00;97454.85;109430;1257;64847;-73
2024/04/17 04:11:20;;;;;;;20.40;16.40;;;;;;;5.19;100.00;97459.77;109484;1253;59051;-74
2024/04/17 04:13:46;;;;;;;22.60;15.10;;;;;;;5.20;100.00;97463.20;109157;1253;59508;-74
2024/04/17 04:16:13;;;;;;;18.10;16.10;;;;;;;5.22;100.00;97466.81;109454;1252;59318;-75
2024/04/17 04:18:39;;;;;;;18.90;16.90;;;;;;;5.23;100.00;97470.05;109478;1252;59092;-74
2024/04/17 04:21:05;;;;;;;21.70;18.40;;;;;;;5.25;100.00;97469.88;109506;1252;59460;-74
2024/04/17 04:23:31;;;;;;;19.90;16.20;;;;;;;5.28;100.00;97473.00;109507;1253;59090;-74
2024/04/17 04:25:58;;;;;;;24.10;17.00;;;;;;;5.31;100.00;97477.93;109446;1253;59814;-74
2024/04/17 04:28:24;;;;;;;20.80;16.80;;;;;;;5.35;100.00;97480.34;109125;1253;59394;-74
2024/04/17 04:30:51;;;;;;;30.70;17.60;;;;;;;5.38;100.00;97483.98;109468;1253;59108;-75
2024/04/17 04:33:17;;;;;;;19.00;17.00;;;;;;;5.41;100.00;97485.16;109470;1253;59282;-75
2024/04/17 04:35:44;;;;;;;20.30;18.10;;;;;;;5.45;100.00;97486.66;109463;1253;59015;-74
2024/04/17 04:38:10;;;;;;;20.00;17.90;;;;;;;5.47;100.00;97484.73;109236;1253;59098;-75
2024/04/17 04:40:36;;;;;;;20.20;18.10;;;;;;;5.50;100.00;97486.13;109472;1253;59044;-74
2024/04/17 04:43:03;;;;;;;19.10;16.90;;;;;;;5.53;100.00;97489.45;109492;1253;59247;-73
2024/04/17 04:45:30;;;;;;;23.20;18.70;;;;;;;5.56;100.00;97487.84;109498;1252;59116;-75
2024/04/17 04:47:56;;;;;;;17.10;14.80;;;;;;;5.60;100.00;97492.11;109474;1252;59004;-74
2024/04/17 04:50:22;;;;;;;21.10;15.80;;;;;;;5.64;100.00;97494.98;109428;1253;59189;-74
2024/04/17 04:52:49;;;;;;;20.50;16.70;;;;;;;5.67;100.00;97499.16;109453;1253;59557;-74
2024/04/17 04:55:15;;;;;;;20.70;16.40;;;;;;;5.70;100.00;97502.66;109191;1253;59028;-75
2024/04/17 04:57:41;;;;;;;18.30;15.80;;;;;;;5.72;100.00;97509.39;109467;1253;59419;-75
2024/04/17 05:00:08;;;;;;;18.50;16.50;;;;;;;5.75;100.00;97508.68;109458;1253;59012;-74
2024/04/17 05:02:35;;;;;;;25.40;17.90;;;;;;;5.78;100.00;97509.18;109463;1252;59108;-76
2024/04/17 05:05:02;;;;;;;22.90;19.40;;;;;;;5.80;100.00;97507.42;109397;1253;59755;-75
2024/04/17 05:07:28;;;;;;;20.70;16.90;;;;;;;5.82;100.00;97507.27;109474;1253;59877;-74
2024/04/17 05:09:54;;;;;;;25.00;17.60;;;;;;;5.84;100.00;97506.45;109461;1253;58989;-76
2024/04/17 05:12:21;;;;;;;22.60;18.30;;;;;;;5.85;100.00;97506.74;109430;1252;59072;-75
2024/04/17 05:14:47;;;;;;;18.10;14.00;;;;;;;5.85;100.00;97511.80;109439;1253;59046;-74
2024/04/17 05:17:13;;;;;;;13.60;11.90;;;;;;;5.82;100.00;97512.55;109461;1252;59048;-73
2024/04/17 05:19:40;;;;;;;15.90;12.90;;;;;;;5.78;100.00;97515.33;109461;1253;59103;-76
2024/04/17 05:22:06;;;;;;;17.40;13.10;;;;;;;5.77;100.00;97515.09;109473;1253;59342;-75
2024/04/17 05:24:32;;;;;;;17.10;13.60;;;;;;;5.77;100.00;97514.90;109440;1253;59032;-74
2024/04/17 05:26:58;;;;;;;14.90;11.70;;;;;;;5.79;100.00;97519.12;109442;1253;58979;-73
2024/04/17 05:29:25;;;;;;;13.80;11.60;;;;;;;5.78;100.00;97529.09;109429;1253;59396;-74
2024/04/17 05:31:51;;;;;;;14.80;11.30;;;;;;;5.75;100.00;97532.65;109454;1253;59053;-75
2024/04/17 05:34:18;;;;;;;10.80;9.40;;;;;;;5.73;100.00;97533.83;109460;1253;59458;-74
2024/04/17 05:36:44;;;;;;;10.60;8.90;;;;;;;5.71;100.00;97536.95;109425;1256;59358;-72
2024/04/17 05:39:11;;;;;;;10.40;7.70;;;;;;;5.68;100.00;97539.08;109479;1253;59008;-74
2024/04/17 05:41:37;;;;;;;9.10;7.90;;;;;;;5.66;100.00;97539.05;109426;1253;58974;-74
2024/04/17 05:44:03;;;;;;;6.90;6.10;;;;;;;5.65;100.00;97546.39;109477;1253;59406;-72
2024/04/17 05:46:30;;;;;;;5.20;4.70;;;;;;;5.62;100.00;97548.36;109464;1253;59069;-73
2024/04/17 05:48:56;;;;;;;7.70;5.40;;;;;;;5.58;100.00;97551.23;109182;1253;59177;-74
2024/04/17 05:51:22;;;;;;;5.60;5.10;;;;;;;5.54;100.00;97556.84;109430;1253;59050;-74
2024/04/17 05:53:49;;;;;;;5.70;5.20;;;;;;;5.54;100.00;97561.27;109457;1253;59074;-74
2024/04/17 05:56:15;;;;;;;5.80;5.00;;;;;;;5.53;100.00;97561.00;109457;1253;59029;-75
2024/04/17 05:58:41;;;;;;;6.00;5.50;;;;;;;5.53;100.00;97565.21;109413;1253;59208;-74
2024/04/17 06:01:08;;;;;;;6.00;5.50;;;;;;;5.51;100.00;97570.79;109453;1253;59106;-72
2024/04/17 06:03:34;;;;;;;7.30;6.50;;;;;;;5.47;100.00;97574.74;109388;1253;59172;-73
2024/04/17 06:06:00;;;;;;;6.10;5.30;;;;;;;5.46;100.00;97575.14;109418;1253;58873;-73
2024/04/17 06:08:27;;;;;;;7.00;6.30;;;;;;;5.46;100.00;97577.61;109485;1253;59128;-74
2024/04/17 06:10:53;;;;;;;8.40;7.30;;;;;;;5.45;100.00;97579.25;109441;1253;59026;-73
2024/04/17 06:13:19;;;;;;;7.70;6.60;;;;;;;5.44;100.00;97580.07;109471;1253;59032;-74
2024/04/17 06:15:47;;;;;;;7.60;6.90;;;;;;;5.44;100.00;97586.55;109442;1253;58951;-75
2024/04/17 06:18:14;;;;;;;7.40;6.70;;;;;;;5.46;100.00;97585.42;109452;1253;58835;-73
2024/04/17 06:20:41;;;;;;;7.70;7.00;;;;;;;5.47;100.00;97587.79;109456;1253;64919;-72
2024/04/17 06:23:08;;;;;;;9.70;8.10;;;;;;;5.52;100.00;97588.89;109459;1253;59009;-74
2024/04/17 06:25:34;;;;;;;8.60;7.80;;;;;;;5.56;100.00;97589.14;109435;1253;62531;-74
2024/04/17 06:28:00;;;;;;;7.80;7.00;;;;;;;5.55;100.00;97586.51;109396;1253;59290;-73
2024/04/17 06:30:28;;;;;;;8.10;7.20;;;;;;;5.52;100.00;97590.27;109470;1253;59018;-74
2024/04/17 06:32:54;;;;;;;8.20;7.00;;;;;;;5.49;100.00;97592.20;109462;1253;66157;-74
2024/04/17 06:35:21;;;;;;;7.20;6.20;;;;;;;5.44;100.00;97595.41;109406;1253;59051;-72
2024/04/17 06:37:47;;;;;;;8.10;7.30;;;;;;;5.33;100.00;97600.75;109467;1253;59025;-72
2024/04/17 06:40:13;;;;;;;6.90;6.30;;;;;;;5.21;100.00;97605.38;109454;1253;59038;-72
2024/04/17 06:42:40;;;;;;;7.50;6.30;;;;;;;5.16;100.00;97610.67;109466;1253;59098;-73
2024/04/17 06:45:06;;;;;;;6.60;6.00;;;;;;;5.15;100.00;97613.23;109131;1253;59428;-73
2024/04/17 06:47:33;;;;;;;6.50;5.80;;;;;;;5.17;100.00;97616.96;109485;1254;59500;-72
2024/04/17 06:49:59;;;;;;;11.30;6.50;;;;;;;5.13;100.00;97620.00;109446;1253;59328;-72
2024/04/17 06:52:25;;;;;;;6.50;5.90;;;;;;;5.04;100.00;97622.37;109458;1253;58960;-71
2024/04/17 06:54:52;;;;;;;8.30;7.30;;;;;;;4.95;100.00;97625.44;109463;1253;59242;-72
2024/04/17 06:57:18;;;;;;;9.70;8.30;;;;;;;4.86;100.00;97624.98;109433;1253;59008;-72
2024/04/17 06:59:44;;;;;;;10.40;9.20;;;;;;;4.82;100.00;97630.55;109406;1256;59160;-71
2024/04/17 07:02:11;;;;;;;9.30;8.50;;;;;;;4.86;100.00;97631.00;109424;1253;59266;-70
2024/04/17 07:04:37;;;;;;;10.60;8.70;;;;;;;4.90;100.00;97635.82;109433;1256;59006;-73
2024/04/17 07:07:04;;;;;;;9.60;8.60;;;;;;;4.94;100.00;97636.06;109437;1253;59923;-71
2024/04/17 07:09:30;;;;;;;9.20;8.20;;;;;;;5.00;100.00;97633.20;109405;1256;59214;-73
2024/04/17 07:11:56;;;;;;;10.60;9.50;;;;;;;5.12;100.00;97635.05;109457;1253;59070;-72
2024/04/17 07:14:22;;;;;;;11.40;10.30;;;;;;;5.19;100.00;97634.44;109401;1257;59818;-72
2024/04/17 07:16:49;;;;;;;11.30;10.20;;;;;;;5.30;100.00;97635.83;109445;1253;59300;-73
2024/04/17 07:19:16;;;;;;;11.90;10.70;;;;;;;5.41;100.00;97637.16;109244;1254;59119;-72
2024/04/17 07:21:42;;;;;;;12.50;11.30;;;;;;;5.54;100.00;97640.86;109435;1253;58972;-73
2024/04/17 07:24:08;;;;;;;17.80;15.10;;;;;;;5.65;100.00;97640.83;109396;1253;59245;-73
2024/04/17 07:26:35;;;;;;;15.90;14.40;;;;;;;5.78;100.00;97644.53;109401;1254;59122;-73
2024/04/17 07:29:01;;;;;;;17.50;15.80;;;;;;;5.84;100.00;97643.16;109066;1254;59033;-72
2024/04/17 07:31:27;;;;;;;16.50;15.00;;;;;;;5.90;100.00;97645.93;109394;1254;59030;-73
2024/04/17 07:33:54;;;;;;;16.90;15.30;;;;;;;5.97;100.00;97649.73;109460;1253;59129;-72
2024/04/17 07:36:20;;;;;;;15.70;14.30;;;;;;;6.02;100.00;97648.00;109431;1254;59024;-72
2024/04/17 07:38:46;;;;;;;15.60;14.20;;;;;;;6.07;100.00;97651.89;109373;1253;59181;-73
2024/04/17 07:41:13;;;;;;;15.00;13.60;;;;;;;6.09;100.00;97656.14;109439;1254;59810;-72
2024/04/17 07:43:39;;;;;;;13.40;12.20;;;;;;;6.10;100.00;97653.05;109454;1253;59040;-73
2024/04/17 07:46:05;;;;;;;12.00;10.80;;;;;;;6.14;100.00;97648.89;109467;1257;58978;-73
2024/04/17 07:48:32;;;;;;;12.90;11.60;;;;;;;6.17;100.00;97649.73;109388;1253;63926;-73
2024/04/17 07:50:58;;;;;;;12.90;11.80;;;;;;;6.18;100.00;97650.73;109387;1253;59169;-73
2024/04/17 07:53:24;;;;;;;13.80;12.40;;;;;;;6.16;100.00;97652.97;109459;1253;58964;-72
2024/04/17 07:55:51;;;;;;;13.80;12.50;;;;;;;6.11;100.00;97654.77;109440;1253;59370;-73
2024/04/17 07:58:17;;;;;;;12.70;11.70;;;;;;;6.06;100.00;97656.16;109429;1254;59285;-74
2024/04/17 08:00:43;;;;;;;12.60;11.60;;;;;;;6.08;100.00;97651.44;109413;1254;59043;-73
2024/04/17 08:03:11;;;;;;;14.00;12.60;;;;;;;6.16;100.00;97646.98;109375;1254;58988;-74
2024/04/17 08:05:38;;;;;;;15.20;13.60;;;;;;;6.23;100.00;97648.96;109430;1253;59072;-74
2024/04/17 08:08:05;;;;;;;14.20;12.80;;;;;;;6.28;100.00;97651.23;109398;1253;66115;-72
2024/04/17 08:10:32;;;;;;;14.40;13.00;;;;;;;6.28;100.00;97652.84;109426;1256;59892;-74
2024/04/17 08:13:11;;;;;;;13.30;12.20;;;;;;;6.23;100.00;97660.41;109405;1253;59419;-74
2024/04/17 08:15:44;;;;;;;15.30;13.60;;;;;;;6.21;100.00;97662.16;109421;1253;58976;-72
2024/04/17 08:18:11;;;;;;;14.00;12.70;;;;;;;6.25;100.00;97660.13;109403;1254;59065;-74
2024/04/17 08:20:38;;;;;;;16.10;14.60;;;;;;;6.31;100.00;97664.81;109464;1253;66021;-74
2024/04/17 08:23:05;;;;;;;15.70;14.00;;;;;;;6.43;100.00;97666.23;109459;1254;59061;-74
2024/04/17 08:25:31;;;;;;;14.00;12.80;;;;;;;6.66;100.00;97664.63;109531;1253;59072;-74
2024/04/17 08:27:57;;;;;;;15.60;14.10;;;;;;;6.90;100.00;97664.80;109483;1254;58933;-74
2024/04/17 08:30:24;;;;;;;15.20;13.90;;;;;;;7.12;100.00;97665.77;109458;1254;58938;-73
2024/04/17 08:32:50;;;;;;;16.30;14.70;;;;;;;7.22;100.00;97667.02;109511;1252;59028;-74
2024/04/17 08:35:17;;;;;;;17.00;15.40;;;;;;;7.16;100.00;97669.98;109535;1254;59017;-73
2024/04/17 08:37:43;;;;;;;16.60;15.10;;;;;;;7.07;100.00;97671.70;109404;1253;59082;-73
2024/04/17 08:40:12;;;;;;;16.00;14.60;;;;;;;6.98;100.00;97674.95;109062;1254;59129;-74
2024/04/17 08:42:41;;;;;;;16.50;15.00;;;;;;;6.97;100.00;97675.41;109440;1254;59063;-74
2024/04/17 08:45:11;;;;;;;15.00;13.60;;;;;;;6.96;100.00;97680.92;109431;1253;64485;-73
2024/04/17 08:47:41;;;;;;;14.80;13.30;;;;;;;6.97;100.00;97680.13;109467;1253;59069;-74
2024/04/17 08:50:09;;;;;;;14.60;13.40;;;;;;;7.02;100.00;97682.40;109487;1253;62807;-74
2024/04/17 08:52:36;;;;;;;14.40;13.20;;;;;;;7.11;100.00;97677.70;109516;1252;58990;-74
2024/04/17 08:55:04;;;;;;;13.60;12.30;;;;;;;7.13;100.00;97678.98;109473;1254;59012;-74
2024/04/17 08:57:31;;;;;;;11.00;10.10;;;;;;;7.18;100.00;97686.95;109508;1252;66054;-73
2024/04/17 08:59:57;;;;;;;12.20;11.20;;;;;;;7.21;100.00;97690.56;109509;1252;59262;-74
2024/04/17 09:02:26;;;;;;;12.90;11.70;;;;;;;7.22;100.00;97693.53;109471;1252;59144;-74
2024/04/17 09:04:54;;;;;;;13.50;12.30;;;;;;;7.26;100.00;97692.14;109521;1252;58997;-74
2024/04/17 09:07:20;;;;;;;12.00;11.00;;;;;;;7.33;100.00;97695.38;109496;1254;58872;-73
2024/04/17 09:09:47;;;;;;;12.50;11.40;;;;;;;7.46;100.00;97702.63;109468;1254;58981;-73
2024/04/17 09:12:14;;;;;;;12.20;11.20;;;;;;;7.65;100.00;97706.69;109257;1253;59093;-73
2024/04/17 09:14:40;;;;;;;13.30;12.20;;;;;;;7.80;100.00;97703.65;109520;1252;62943;-73
2024/04/17 09:17:07;;;;;;;11.50;10.50;;;;;;;7.94;100.00;97701.71;109453;1253;58975;-72
2024/04/17 09:19:33;;;;;;;11.40;9.90;;;;;;;8.10;100.00;97706.66;109482;1253;59051;-73
2024/04/17 09:22:00;;;;;;;9.70;8.90;;;;;;;8.23;100.00;97710.02;109492;1253;59148;-73
2024/04/17 09:24:27;;;;;;;10.90;10.00;;;;;;;8.31;100.00;97712.27;109249;1254;59101;-74
2024/04/17 09:26:54;;;;;;;10.50;9.70;;;;;;;8.41;100.00;97714.34;109468;1253;64116;-73
2024/04/17 09:29:20;;;;;;;9.60;8.80;;;;;;;8.40;100.00;97714.27;109460;1252;59313;-75
2024/04/17 09:31:47;;;;;;;9.00;8.30;;;;;;;8.37;100.00;97717.30;109476;1254;59081;-73
2024/04/17 09:34:17;;;;;;;8.40;7.70;;;;;;;8.26;100.00;97720.95;109491;1253;58959;-74
2024/04/17 09:36:48;;;;;;;9.60;8.80;;;;;;;8.13;100.00;97723.40;109472;1252;60332;-75
2024/04/17 09:39:14;;;;;;;8.50;7.70;;;;;;;7.97;100.00;97730.33;109472;1253;64107;-73
2024/04/17 09:41:41;;;;;;;6.70;6.20;;;;;;;7.77;100.00;97732.86;109529;1253;59024;-72
2024/04/17 09:44:12;;;;;;;7.30;6.70;;;;;;;7.62;100.00;97734.89;109478;1254;59186;-73
2024/04/17 09:46:38;;;;;;;;;;;;;;;7.52;100.00;97737.60;109559;1255;65716;-73
2024/04/17 09:49:18;;;;;;;6.00;5.50;;;;;;;7.42;100.00;97737.29;109508;1253;58935;-74
2024/04/17 09:51:56;;;;;;;6.40;5.90;;;;;;;7.39;100.00;97736.59;109487;1251;62855;-74
2024/04/17 09:54:23;;;;;;;5.90;5.50;;;;;;;7.40;100.00;97736.30;109525;1254;58953;-73
2024/04/17 09:56:49;;;;;;;5.40;5.00;;;;;;;7.45;100.00;97736.52;109471;1253;59023;-74
2024/04/17 09:59:19;;;;;;;6.10;5.60;;;;;;;7.55;100.00;97735.77;109494;1252;59021;-74
2024/04/17 10:01:47;;;;;;;6.20;5.60;;;;;;;7.66;100.00;97736.02;109463;1254;60432;-73
2024/04/17 10:04:14;;;;;;;6.50;6.00;;;;;;;7.72;100.00;97736.58;109371;1254;64077;-74
2024/04/17 10:06:42;;;;;;;6.70;6.20;;;;;;;7.71;100.00;97735.96;109359;1254;59029;-74
2024/04/17 10:09:12;;;;;;;6.60;5.50;;;;;;;7.66;100.00;97732.80;109355;1254;59124;-72
2024/04/17 10:11:39;;;;;;;6.70;6.20;;;;;;;7.65;100.00;97735.02;109366;1254;66860;-74
2024/04/17 10:14:11;;;;;;;6.00;5.50;;;;;;;7.59;100.00;97734.02;109361;1254;61246;-74
2024/04/17 10:16:39;;;;;;;6.10;5.60;;;;;;;7.53;100.00;97736.45;109390;1253;62517;-73
2024/04/17 10:19:06;;;;;;;5.40;5.00;;;;;;;7.48;100.00;97733.46;109368;1254;59080;-73
2024/04/17 10:21:36;;;;;;;6.00;5.40;;;;;;;7.42;100.00;97737.63;109363;1253;58923;-81
2024/04/17 10:24:07;;;;;;;6.80;6.20;;;;;;;7.42;100.00;97736.86;109409;1254;66117;-74
2024/04/17 10:26:47;;;;;;;7.30;6.70;;;;;;;7.44;100.00;97737.31;109330;1254;60978;-73
2024/04/17 10:29:16;;;;;;;7.70;6.60;;;;;;;7.37;100.00;97737.63;109400;1253;62936;-73
2024/04/17 10:32:02;;;;;;;6.30;5.50;;;;;;;7.32;100.00;97738.38;109333;1254;59158;-74
2024/04/17 10:34:40;;;;;;;7.20;6.50;;;;;;;7.26;100.00;97737.17;109376;1253;58873;-72
2024/04/17 10:37:09;;;;;;;5.20;4.70;;;;;;;7.17;100.00;97738.09;109393;1254;64520;-74
2024/04/17 10:39:37;;;;;;;5.30;4.90;;;;;;;7.08;100.00;97738.73;109365;1254;60235;-73
2024/04/17 10:42:07;;;;;;;5.70;4.80;;;;;;;7.10;100.00;97739.95;109377;1253;64052;-75
2024/04/17 10:44:35;;;;;;;5.20;4.70;;;;;;;7.21;100.00;97742.17;109359;1254;59079;-73
2024/04/17 10:47:05;;;;;;;7.70;4.40;;;;;;;7.37;100.00;97738.35;109377;1254;58929;-74
2024/04/17 10:49:38;;;;;;;;;;;;;;;7.51;100.00;97737.70;109400;1254;64878;-74
2024/04/17 10:52:05;;;;;;;5.20;4.10;;;;;;;7.62;100.00;97740.20;109364;1253;59065;-73
2024/04/17 10:54:34;;;;;;;5.00;4.50;;;;;;;7.81;100.00;97738.36;109355;1253;59071;-73
2024/04/17 10:57:02;;;;;;;6.50;4.60;;;;;;;7.98;100.00;97739.08;109389;1253;59028;-75
2024/04/17 10:59:29;;;;;;;5.60;4.10;;;;;;;8.17;100.00;97736.89;109339;1254;58995;-74
2024/04/17 11:01:55;;;;;;;5.10;4.20;;;;;;;8.48;100.00;97738.19;109365;1253;58961;-74
2024/04/17 11:04:24;;;;;;;4.00;3.70;;;;;;;8.78;100.00;97741.35;109479;1252;58943;-73
2024/04/17 11:06:51;;;;;;;3.90;3.60;;;;;;;9.10;100.00;97741.56;109502;1252;64179;-74
2024/04/17 11:09:17;;;;;;;4.60;4.10;;;;;;;9.42;100.00;97741.34;109490;1253;58941;-73
2024/04/17 11:11:46;;;;;;;4.00;3.60;;;;;;;9.67;100.00;97739.38;109491;1253;58907;-75
2024/04/17 11:14:14;;;;;;;4.20;3.80;;;;;;;9.83;100.00;97740.39;109504;1253;65021;-73
2024/04/17 11:16:41;;;;;;;4.20;3.80;;;;;;;9.86;100.00;97738.67;109391;1254;149128;-73